createdAt,value
2023-05-14T00:02:54.943Z,4.32
2023-05-14T00:05:57.264Z,4.40
2023-05-14T00:09:02.242Z,4.43
2023-05-14T00:12:04.706Z,4.35
2023-05-14T00:15:07.624Z,4.40
2023-05-14T00:18:12.215Z,4.35
2023-05-14T00:21:14.576Z,4.30
2023-05-14T00:24:16.852Z,4.18
2023-05-14T00:27:19.148Z,4.50
2023-05-14T00:30:21.658Z,3.77
2023-05-14T00:33:24.182Z,4.30
2023-05-14T00:36:26.407Z,4.25
2023-05-14T00:39:28.706Z,4.28
2023-05-14T00:42:31.002Z,4.05
2023-05-14T00:45:33.279Z,3.70
2023-05-14T00:48:35.981Z,3.80
2023-05-14T00:51:38.839Z,3.70
2023-05-14T00:54:41.293Z,3.83
2023-05-14T00:57:44.079Z,4.00
2023-05-14T01:00:46.363Z,3.83
2023-05-14T01:03:49.131Z,3.80
2023-05-14T01:07:31.489Z,3.97
2023-05-14T01:11:03.620Z,3.30
2023-05-14T01:14:12.195Z,4.22
2023-05-14T01:17:19.993Z,4.23
2023-05-14T01:20:22.816Z,4.20
2023-05-14T01:23:25.208Z,3.70
2023-05-14T01:26:28.200Z,4.03
2023-05-14T01:29:32.374Z,4.97
2023-05-14T01:32:35.153Z,4.20
2023-05-14T01:35:37.612Z,4.30
2023-05-14T01:38:40.106Z,4.28
2023-05-14T01:41:42.852Z,4.03
2023-05-14T01:44:45.260Z,4.03
2023-05-14T01:47:47.639Z,3.70
2023-05-14T01:50:49.972Z,3.63
2023-05-14T01:53:52.392Z,3.97
2023-05-14T01:56:55.931Z,3.65
2023-05-14T01:59:58.736Z,3.90
2023-05-14T02:03:01.095Z,4.03
2023-05-14T02:06:03.520Z,3.50
2023-05-14T02:09:06.060Z,3.67
2023-05-14T02:12:09.298Z,4.00
2023-05-14T02:15:11.930Z,4.15
2023-05-14T02:18:14.454Z,3.40
2023-05-14T02:21:16.684Z,4.07
2023-05-14T02:24:19.178Z,3.88
2023-05-14T02:27:21.937Z,3.65
2023-05-14T02:30:24.430Z,3.97
2023-05-14T02:33:27.403Z,3.70
2023-05-14T02:36:30.054Z,3.55
2023-05-14T02:39:32.395Z,3.72
2023-05-14T02:42:35.380Z,3.50
2023-05-14T02:45:37.787Z,3.70
2023-05-14T02:48:40.341Z,3.00
2023-05-14T02:51:42.636Z,3.53
2023-05-14T02:54:44.905Z,3.47
2023-05-14T02:57:47.204Z,3.20
2023-05-14T03:00:49.501Z,3.45
2023-05-14T03:03:52.655Z,3.00
2023-05-14T03:06:55.099Z,3.10
2023-05-14T03:09:57.383Z,3.50
2023-05-14T03:12:59.726Z,3.17
2023-05-14T03:16:01.997Z,3.70
2023-05-14T03:19:04.409Z,3.43
2023-05-14T03:22:06.786Z,3.25
2023-05-14T03:25:09.319Z,3.60
2023-05-14T03:28:11.613Z,3.13
2023-05-14T03:31:14.133Z,3.80
2023-05-14T03:34:16.710Z,2.83
2023-05-14T03:37:18.975Z,3.45
2023-05-14T03:40:21.755Z,3.22
2023-05-14T03:43:24.196Z,3.10
2023-05-14T03:46:26.389Z,2.80
2023-05-14T03:49:29.115Z,2.90
2023-05-14T03:52:31.991Z,3.33
2023-05-14T03:55:34.325Z,3.28
2023-05-14T03:58:37.147Z,3.05
2023-05-14T04:01:39.437Z,2.97
2023-05-14T04:04:42.390Z,2.60
2023-05-14T04:07:45.924Z,3.25
2023-05-14T04:10:48.423Z,2.58
2023-05-14T04:13:50.738Z,2.92
2023-05-14T04:16:53.073Z,3.13
2023-05-14T04:19:55.357Z,3.33
2023-05-14T04:22:57.604Z,2.83
2023-05-14T04:25:59.843Z,3.00
2023-05-14T04:29:03.481Z,3.10
2023-05-14T04:32:06.756Z,3.10
2023-05-14T04:35:10.347Z,2.73
2023-05-14T04:38:14.226Z,2.90
2023-05-14T04:41:16.502Z,2.78
2023-05-14T04:44:18.717Z,2.83
2023-05-14T04:47:21.236Z,3.00
2023-05-14T04:50:23.648Z,3.03
2023-05-14T04:53:26.107Z,2.95
2023-05-14T04:56:28.425Z,3.15
2023-05-14T04:59:31.466Z,3.03
2023-05-14T05:02:34.854Z,3.28
2023-05-14T05:05:37.248Z,3.33
2023-05-14T05:08:39.962Z,2.92
2023-05-14T05:11:42.353Z,3.00
2023-05-14T05:14:44.649Z,3.20
2023-05-14T05:17:47.014Z,3.38
2023-05-14T05:20:49.357Z,3.30
2023-05-14T05:23:51.774Z,3.30
2023-05-14T05:26:55.809Z,3.22
2023-05-14T05:29:58.099Z,3.15
2023-05-14T05:33:01.489Z,3.70
2023-05-14T05:36:04.132Z,3.40
2023-05-14T05:39:06.553Z,3.00
2023-05-14T05:42:08.854Z,3.55
2023-05-14T05:45:11.232Z,3.33
2023-05-14T05:48:13.628Z,3.30
2023-05-14T05:51:15.948Z,3.30
2023-05-14T05:54:18.188Z,3.20
2023-05-14T05:57:23.641Z,3.40
2023-05-14T06:00:27.537Z,2.95
2023-05-14T06:03:29.914Z,3.47
2023-05-14T06:06:33.080Z,3.30
2023-05-14T06:09:35.536Z,3.10
2023-05-14T06:12:37.798Z,4.25
2023-05-14T06:15:40.152Z,3.88
2023-05-14T06:18:42.402Z,3.40
2023-05-14T06:21:44.699Z,3.27
2023-05-14T06:24:47.829Z,3.25
2023-05-14T06:27:50.128Z,3.70
2023-05-14T06:30:54.088Z,4.10
2023-05-14T06:33:57.999Z,3.08
2023-05-14T06:37:02.820Z,3.40
2023-05-14T06:40:05.757Z,3.38
2023-05-14T06:43:08.033Z,3.85
2023-05-14T06:46:10.717Z,2.83
2023-05-14T06:49:13.048Z,3.53
2023-05-14T06:52:15.484Z,3.20
2023-05-14T06:55:17.870Z,3.10
2023-05-14T06:58:20.169Z,3.67
2023-05-14T07:01:22.608Z,3.25
2023-05-14T07:04:24.920Z,3.17
2023-05-14T07:07:27.185Z,3.67
2023-05-14T07:10:30.964Z,3.33
2023-05-14T07:13:33.440Z,3.40
2023-05-14T07:16:36.096Z,3.60
2023-05-14T07:19:38.418Z,3.35
2023-05-14T07:22:40.930Z,3.40
2023-05-14T07:25:43.227Z,3.70
2023-05-14T07:28:45.521Z,3.53
2023-05-14T07:31:47.925Z,3.40
2023-05-14T07:34:50.264Z,3.63
2023-05-14T07:37:52.850Z,3.20
2023-05-14T07:40:55.224Z,3.83
2023-05-14T07:43:57.492Z,3.40
2023-05-14T07:46:59.789Z,4.10
2023-05-14T07:50:02.077Z,3.72
2023-05-14T07:53:04.311Z,3.90
2023-05-14T07:56:07.096Z,4.10
2023-05-14T07:59:09.362Z,4.00
2023-05-14T08:02:12.970Z,4.25
2023-05-14T08:05:15.970Z,4.78
2023-05-14T08:08:18.429Z,4.43
2023-05-14T08:11:21.528Z,4.35
2023-05-14T08:14:23.808Z,3.88
2023-05-14T08:17:26.251Z,4.18
2023-05-14T08:20:28.843Z,4.00
2023-05-14T08:23:31.214Z,4.07
2023-05-14T08:26:33.491Z,4.45
2023-05-14T08:29:35.973Z,4.53
2023-05-14T08:32:38.750Z,4.25
2023-05-14T08:35:41.158Z,4.13
2023-05-14T08:38:44.253Z,4.30
2023-05-14T08:41:46.825Z,3.80
2023-05-14T08:44:50.300Z,4.30
2023-05-14T08:47:53.167Z,4.00
2023-05-14T08:50:55.555Z,4.35
2023-05-14T08:53:59.313Z,4.70
2023-05-14T08:57:03.483Z,5.25
2023-05-14T09:00:11.878Z,4.40
2023-05-14T09:03:17.660Z,4.05
2023-05-14T09:06:21.595Z,4.30
2023-05-14T09:09:26.291Z,4.33
2023-05-14T09:12:28.806Z,3.78
2023-05-14T09:15:31.709Z,4.78
2023-05-14T09:18:36.262Z,4.22
2023-05-14T09:21:38.999Z,4.53
2023-05-14T09:24:41.931Z,4.00
2023-05-14T09:27:50.201Z,3.92
2023-05-14T09:30:53.664Z,4.32
2023-05-14T09:33:56.239Z,4.30
2023-05-14T09:37:03.501Z,4.07
2023-05-14T09:40:09.531Z,4.57
2023-05-14T09:43:12.218Z,4.20
2023-05-14T09:46:14.663Z,4.45
2023-05-14T09:49:17.164Z,6.88
2023-05-14T09:52:19.947Z,6.55
2023-05-14T09:55:22.518Z,7.70
2023-05-14T09:58:24.820Z,7.13
2023-05-14T10:01:29.024Z,8.48
2023-05-14T10:04:33.077Z,6.07
2023-05-14T10:07:45.206Z,4.70
2023-05-14T10:10:48.676Z,5.20
2023-05-14T10:14:18.304Z,5.28
2023-05-14T10:17:21.810Z,5.47
2023-05-14T10:20:25.409Z,4.57
2023-05-14T10:23:27.970Z,4.82
2023-05-14T10:26:31.052Z,5.30
2023-05-14T10:29:38.210Z,5.18
2023-05-14T10:32:41.919Z,5.03
2023-05-14T10:36:04.767Z,4.82
2023-05-14T10:39:09.075Z,4.85
2023-05-14T10:42:16.824Z,5.07
2023-05-14T10:45:19.173Z,5.03
2023-05-14T10:48:21.883Z,4.35
2023-05-14T10:51:24.277Z,4.88
2023-05-14T10:54:28.659Z,4.95
2023-05-14T10:57:32.071Z,4.23
2023-05-14T11:00:34.596Z,4.60
2023-05-14T11:03:42.293Z,5.07
2023-05-14T11:06:48.576Z,4.70
2023-05-14T11:09:51.368Z,5.00
2023-05-14T11:12:53.663Z,6.10
2023-05-14T11:15:56.142Z,6.90
2023-05-14T11:19:03.476Z,7.25
2023-05-14T11:22:06.653Z,6.90
2023-05-14T11:25:10.062Z,7.78
2023-05-14T11:28:12.387Z,8.17
2023-05-14T11:31:14.671Z,6.53
2023-05-14T11:34:16.954Z,5.13
2023-05-14T11:37:19.331Z,4.70
2023-05-14T11:40:21.785Z,4.85
2023-05-14T11:43:24.526Z,4.13
2023-05-14T11:46:27.691Z,3.92
2023-05-14T11:49:30.057Z,3.95
2023-05-14T11:52:37.907Z,4.28
2023-05-14T11:55:40.416Z,4.25
2023-05-14T11:58:48.657Z,5.00
2023-05-14T12:01:52.454Z,4.40
2023-05-14T12:04:54.810Z,4.55
2023-05-14T12:07:57.200Z,4.85
2023-05-14T12:11:00.700Z,5.40
2023-05-14T12:14:11.296Z,5.13
2023-05-14T12:17:16.656Z,5.13
2023-05-14T12:20:19.133Z,5.70
2023-05-14T12:23:31.910Z,5.60
2023-05-14T12:26:34.296Z,4.95
2023-05-14T12:29:38.968Z,5.33
2023-05-14T12:32:41.438Z,6.05
2023-05-14T12:35:43.875Z,5.43
2023-05-14T12:38:46.168Z,6.10
2023-05-14T12:41:48.589Z,5.43
2023-05-14T12:44:51.034Z,5.60
2023-05-14T12:47:53.450Z,5.53
2023-05-14T12:51:01.515Z,5.93
2023-05-14T12:54:04.023Z,5.45
2023-05-14T12:57:06.575Z,6.20
2023-05-14T13:00:21.264Z,6.90
2023-05-14T13:03:23.814Z,6.00
2023-05-14T13:06:26.256Z,5.80
2023-05-14T13:09:28.676Z,5.57
2023-05-14T13:12:31.012Z,5.38
2023-05-14T13:15:33.793Z,6.00
2023-05-14T13:18:36.212Z,5.15
2023-05-14T13:21:40.296Z,5.18
2023-05-14T13:24:42.827Z,5.65
2023-05-14T13:27:45.161Z,5.18
2023-05-14T13:31:07.838Z,5.80
2023-05-14T13:34:10.386Z,6.25
2023-05-14T13:37:14.734Z,6.50
2023-05-14T13:40:25.199Z,7.22
2023-05-14T13:43:28.926Z,7.72
2023-05-14T13:46:31.880Z,6.57
2023-05-14T13:49:34.247Z,5.78
2023-05-14T13:52:37.831Z,6.40
2023-05-14T13:55:40.204Z,5.63
2023-05-14T13:58:42.645Z,5.90
2023-05-14T14:01:44.971Z,5.80
2023-05-14T14:04:49.631Z,5.57
2023-05-14T14:08:04.357Z,6.22
2023-05-14T14:11:17.732Z,5.72
2023-05-14T14:14:20.213Z,6.13
2023-05-14T14:17:25.495Z,5.80
2023-05-14T14:20:28.895Z,5.53
2023-05-14T14:23:31.186Z,5.07
2023-05-14T14:26:33.498Z,4.47
2023-05-14T14:29:36.891Z,4.55
2023-05-14T14:32:39.249Z,4.33
2023-05-14T14:35:41.729Z,4.30
2023-05-14T14:38:44.173Z,4.75
2023-05-14T14:41:47.651Z,3.35
2023-05-14T14:44:49.980Z,3.80
2023-05-14T14:47:52.400Z,3.37
2023-05-14T14:50:55.946Z,3.53
2023-05-14T14:53:58.225Z,2.90
2023-05-14T14:57:00.662Z,3.20
2023-05-14T15:00:03.710Z,2.83
2023-05-14T15:03:06.772Z,3.17
2023-05-14T15:06:09.174Z,3.00
2023-05-14T15:09:11.464Z,3.63
2023-05-14T15:12:14.322Z,3.30
2023-05-14T15:15:16.609Z,2.83
2023-05-14T15:18:18.999Z,3.00
2023-05-14T15:21:21.531Z,3.22
2023-05-14T15:24:25.185Z,2.67
2023-05-14T15:27:28.248Z,3.85
2023-05-14T15:30:30.652Z,4.38
2023-05-14T15:33:34.113Z,4.53
2023-05-14T15:36:36.572Z,5.20
2023-05-14T15:39:38.777Z,7.63
2023-05-14T15:42:43.628Z,3.92
2023-05-14T15:45:49.271Z,6.47
2023-05-14T15:48:51.585Z,15.07
2023-05-14T15:51:54.646Z,17.58
2023-05-14T15:54:57.584Z,5.03
2023-05-14T15:57:59.886Z,3.58
2023-05-14T16:01:02.852Z,2.67
2023-05-14T16:04:05.317Z,2.63
2023-05-14T16:07:12.250Z,2.40
2023-05-14T16:10:14.590Z,2.65
2023-05-14T16:13:16.928Z,2.17
2023-05-14T16:16:20.832Z,2.40
2023-05-14T16:19:23.481Z,2.20
2023-05-14T16:22:25.777Z,2.67
2023-05-14T16:25:30.710Z,2.28
2023-05-14T16:28:33.049Z,2.42
2023-05-14T16:31:35.486Z,2.30
2023-05-14T16:34:37.786Z,1.97
2023-05-14T16:37:40.089Z,2.38
2023-05-14T16:40:42.904Z,2.03
2023-05-14T16:43:45.516Z,1.98
2023-05-14T16:46:48.291Z,2.33
2023-05-14T16:49:50.573Z,2.33
2023-05-14T16:52:53.016Z,2.20
2023-05-14T16:55:55.262Z,2.25
2023-05-14T16:59:00.894Z,2.47
2023-05-14T17:02:03.926Z,2.35
2023-05-14T17:05:07.967Z,3.23
2023-05-14T17:08:10.455Z,4.10
2023-05-14T17:11:12.949Z,2.42
2023-05-14T17:14:15.353Z,2.30
2023-05-14T17:17:17.729Z,2.40
2023-05-14T17:20:20.300Z,2.90
2023-05-14T17:23:22.574Z,2.70
2023-05-14T17:26:26.404Z,2.55
2023-05-14T17:29:28.676Z,3.67
2023-05-14T17:32:31.450Z,3.25
2023-05-14T17:35:36.449Z,3.57
2023-05-14T17:38:39.184Z,3.85
2023-05-14T17:41:42.171Z,2.80
2023-05-14T17:44:45.337Z,3.85
2023-05-14T17:47:49.795Z,3.92
2023-05-14T17:50:52.263Z,4.00
2023-05-14T17:53:54.562Z,4.07
2023-05-14T17:56:56.901Z,2.95
2023-05-14T17:59:59.363Z,3.30
2023-05-14T18:03:01.662Z,3.80
2023-05-14T18:06:04.620Z,3.37
2023-05-14T18:09:06.947Z,3.33
2023-05-14T18:12:09.225Z,3.45
2023-05-14T18:15:11.558Z,3.80
2023-05-14T18:18:17.203Z,3.63
2023-05-14T18:21:19.491Z,3.30
2023-05-14T18:24:22.374Z,3.40
2023-05-14T18:27:24.748Z,4.20
2023-05-14T18:30:27.133Z,3.80
2023-05-14T18:33:29.648Z,3.70
2023-05-14T18:36:32.081Z,3.93
2023-05-14T18:39:34.370Z,3.92
2023-05-14T18:42:36.678Z,3.70
2023-05-14T18:45:42.645Z,3.83
2023-05-14T18:48:45.044Z,4.55
2023-05-14T18:51:47.336Z,4.67
2023-05-14T18:54:50.908Z,3.85
2023-05-14T18:57:53.227Z,4.38
2023-05-14T19:00:57.905Z,3.85
2023-05-14T19:04:01.283Z,3.97
2023-05-14T19:07:05.045Z,3.83
2023-05-14T19:10:08.028Z,3.75
2023-05-14T19:13:10.346Z,3.67
2023-05-14T19:16:13.254Z,3.90
2023-05-14T19:19:15.770Z,3.90
2023-05-14T19:22:19.533Z,3.90
2023-05-14T19:25:21.905Z,4.20
2023-05-14T19:28:24.345Z,3.22
2023-05-14T19:31:27.153Z,3.58
2023-05-14T19:34:29.438Z,4.03
2023-05-14T19:37:32.017Z,3.83
2023-05-14T19:40:34.297Z,3.60
2023-05-14T19:43:36.558Z,4.00
2023-05-14T19:46:38.914Z,3.40
2023-05-14T19:49:41.382Z,3.55
2023-05-14T19:52:43.716Z,3.60
2023-05-14T19:55:46.025Z,3.60
2023-05-14T19:58:48.408Z,3.40
2023-05-14T20:01:50.809Z,3.60
2023-05-14T20:04:55.649Z,3.65
2023-05-14T20:07:58.019Z,3.47
2023-05-14T20:11:03.322Z,3.50
2023-05-14T20:14:05.820Z,3.13
2023-05-14T20:17:08.150Z,4.05
2023-05-14T20:20:11.931Z,3.45
2023-05-14T20:23:14.200Z,3.30
2023-05-14T20:26:16.507Z,3.58
2023-05-14T20:29:18.828Z,3.65
2023-05-14T20:32:24.928Z,4.25
2023-05-14T20:35:27.631Z,3.92
2023-05-14T20:38:31.319Z,3.80
2023-05-14T20:41:33.628Z,3.60
2023-05-14T20:44:35.963Z,3.88
2023-05-14T20:47:38.376Z,4.00
2023-05-14T20:50:40.674Z,3.60
2023-05-14T20:53:43.004Z,3.83
2023-05-14T20:56:45.691Z,3.75
2023-05-14T20:59:49.030Z,3.63
2023-05-14T21:02:51.579Z,3.78
2023-05-14T21:05:56.093Z,3.70
2023-05-14T21:08:58.426Z,3.10
2023-05-14T21:12:00.732Z,2.95
2023-05-14T21:15:03.220Z,3.50
2023-05-14T21:18:05.581Z,3.95
2023-05-14T21:21:07.900Z,3.42
2023-05-14T21:24:10.176Z,3.17
2023-05-14T21:27:12.504Z,3.15
2023-05-14T21:30:15.104Z,3.40
2023-05-14T21:33:17.640Z,2.92
2023-05-14T21:36:21.189Z,3.15
2023-05-14T21:39:23.469Z,3.90
2023-05-14T21:42:25.784Z,3.70
2023-05-14T21:45:28.396Z,3.00
2023-05-14T21:48:31.104Z,2.80
2023-05-14T21:51:33.756Z,2.97
2023-05-14T21:54:36.002Z,3.07
2023-05-14T21:57:38.271Z,3.30
2023-05-14T22:00:41.229Z,3.22
2023-05-14T22:03:43.573Z,3.15
2023-05-14T22:06:46.102Z,3.05
2023-05-14T22:09:48.936Z,3.30
2023-05-14T22:12:52.379Z,4.55
2023-05-14T22:16:01.411Z,3.58
2023-05-14T22:19:12.005Z,3.25
2023-05-14T22:22:14.329Z,3.53
2023-05-14T22:25:16.654Z,3.40
2023-05-14T22:28:20.044Z,3.58
2023-05-14T22:31:22.348Z,3.40
2023-05-14T22:34:24.647Z,3.22
2023-05-14T22:37:26.909Z,3.28
2023-05-14T22:40:29.184Z,3.50
2023-05-14T22:43:31.523Z,3.60
2023-05-14T22:46:33.918Z,3.55
2023-05-14T22:49:36.296Z,3.60
2023-05-14T22:52:39.352Z,3.58
2023-05-14T22:55:41.646Z,3.50
2023-05-14T22:58:44.437Z,3.88
2023-05-14T23:01:46.758Z,3.75
2023-05-14T23:04:49.162Z,4.07
2023-05-14T23:07:52.845Z,4.00
2023-05-14T23:10:55.132Z,4.00
2023-05-14T23:13:57.421Z,4.05
2023-05-14T23:16:59.793Z,3.90
2023-05-14T23:20:02.130Z,4.10
2023-05-14T23:23:05.086Z,4.20
2023-05-14T23:26:07.442Z,4.10
2023-05-14T23:29:09.803Z,3.80
2023-05-14T23:32:12.184Z,4.80
2023-05-14T23:35:14.534Z,4.65
2023-05-14T23:38:16.840Z,4.88
2023-05-14T23:41:19.180Z,4.53
2023-05-14T23:44:21.635Z,4.78
2023-05-14T23:47:23.971Z,4.15
2023-05-14T23:50:26.330Z,4.70
2023-05-14T23:53:28.564Z,4.50
2023-05-14T23:56:31.053Z,4.13
2023-05-14T23:59:33.357Z,4.57
